createdAt,value
2023-05-14T00:01:42.267Z,100.00
2023-05-14T00:03:43.870Z,100.00
2023-05-14T00:05:45.434Z,100.00
2023-05-14T00:07:46.864Z,100.00
2023-05-14T00:09:48.281Z,100.00
2023-05-14T00:11:49.842Z,100.00
2023-05-14T00:13:51.270Z,100.00
2023-05-14T00:15:52.702Z,100.00
2023-05-14T00:17:54.474Z,100.00
2023-05-14T00:19:55.903Z,100.00
2023-05-14T00:21:57.372Z,100.00
2023-05-14T00:23:59.046Z,100.00
2023-05-14T00:26:00.549Z,100.00
2023-05-14T00:28:02.013Z,100.00
2023-05-14T00:30:05.568Z,100.00
2023-05-14T00:32:07.302Z,100.00
2023-05-14T00:34:08.700Z,100.00
2023-05-14T00:36:10.265Z,100.00
2023-05-14T00:38:11.704Z,100.00
2023-05-14T00:40:13.215Z,100.00
2023-05-14T00:42:14.786Z,100.00
2023-05-14T00:44:16.164Z,100.00
2023-05-14T00:46:17.734Z,100.00
2023-05-14T00:48:20.692Z,100.00
2023-05-14T00:50:22.975Z,100.00
2023-05-14T00:52:25.098Z,100.00
2023-05-14T00:54:27.989Z,100.00
2023-05-14T00:56:29.521Z,100.00
2023-05-14T00:58:31.159Z,100.00
2023-05-14T01:00:32.892Z,100.00
2023-05-14T01:02:34.516Z,100.00
2023-05-14T01:04:36.157Z,100.00
2023-05-14T01:06:40.532Z,100.00
2023-05-14T01:09:08.900Z,100.00
2023-05-14T01:11:17.386Z,100.00
2023-05-14T01:13:27.554Z,100.00
2023-05-14T01:15:31.552Z,100.00
2023-05-14T01:17:38.498Z,100.00
2023-05-14T01:19:42.422Z,100.00
2023-05-14T01:21:43.878Z,100.00
2023-05-14T01:23:45.251Z,100.00
2023-05-14T01:25:47.375Z,100.00
2023-05-14T01:27:51.494Z,100.00
2023-05-14T01:30:29.312Z,100.00
2023-05-14T01:32:31.667Z,100.00
2023-05-14T01:34:35.365Z,100.00
2023-05-14T01:36:37.069Z,100.00
2023-05-14T01:38:39.119Z,100.00
2023-05-14T01:40:41.731Z,100.00
2023-05-14T01:42:44.481Z,100.00
2023-05-14T01:44:46.159Z,100.00
2023-05-14T01:46:47.565Z,100.00
2023-05-14T01:48:48.995Z,100.00
2023-05-14T01:50:50.485Z,100.00
2023-05-14T01:52:51.926Z,100.00
2023-05-14T01:54:53.383Z,100.00
2023-05-14T01:56:55.018Z,100.00
2023-05-14T01:58:56.410Z,100.00
2023-05-14T02:00:58.195Z,100.00
2023-05-14T02:02:59.758Z,100.00
2023-05-14T02:05:01.220Z,100.00
2023-05-14T02:07:02.617Z,100.00
2023-05-14T02:09:05.125Z,100.00
2023-05-14T02:11:06.580Z,100.00
2023-05-14T02:13:07.974Z,100.00
2023-05-14T02:15:09.911Z,100.00
2023-05-14T02:17:11.728Z,100.00
2023-05-14T02:19:13.206Z,100.00
2023-05-14T02:21:14.785Z,100.00
2023-05-14T02:23:16.173Z,100.00
2023-05-14T02:25:17.604Z,100.00
2023-05-14T02:27:19.808Z,100.00
2023-05-14T02:29:21.218Z,100.00
2023-05-14T02:31:22.691Z,100.00
2023-05-14T02:33:25.081Z,100.00
2023-05-14T02:35:26.487Z,100.00
2023-05-14T02:37:27.904Z,100.00
2023-05-14T02:39:29.546Z,100.00
2023-05-14T02:41:30.932Z,100.00
2023-05-14T02:43:32.321Z,100.00
2023-05-14T02:45:33.827Z,100.00
2023-05-14T02:47:37.849Z,100.00
2023-05-14T02:49:39.670Z,100.00
2023-05-14T02:51:41.299Z,100.00
2023-05-14T02:53:42.766Z,100.00
2023-05-14T02:55:44.185Z,100.00
2023-05-14T02:57:45.832Z,100.00
2023-05-14T02:59:47.223Z,100.00
2023-05-14T03:01:49.068Z,100.00
2023-05-14T03:03:51.081Z,100.00
2023-05-14T03:05:53.048Z,100.00
2023-05-14T03:07:54.447Z,100.00
2023-05-14T03:09:55.982Z,100.00
2023-05-14T03:11:57.441Z,100.00
2023-05-14T03:13:58.868Z,100.00
2023-05-14T03:16:00.373Z,100.00
2023-05-14T03:18:01.854Z,100.00
2023-05-14T03:20:03.703Z,100.00
2023-05-14T03:22:05.207Z,100.00
2023-05-14T03:24:06.709Z,100.00
2023-05-14T03:26:08.100Z,100.00
2023-05-14T03:28:09.676Z,100.00
2023-05-14T03:30:11.685Z,100.00
2023-05-14T03:32:13.170Z,100.00
2023-05-14T03:34:14.785Z,100.00
2023-05-14T03:36:16.219Z,100.00
2023-05-14T03:38:17.738Z,100.00
2023-05-14T03:40:19.261Z,100.00
2023-05-14T03:42:20.647Z,100.00
2023-05-14T03:44:22.084Z,100.00
2023-05-14T03:46:23.625Z,100.00
2023-05-14T03:48:25.120Z,100.00
2023-05-14T03:50:26.676Z,100.00
2023-05-14T03:52:28.183Z,100.00
2023-05-14T03:54:29.589Z,100.00
2023-05-14T03:56:31.071Z,100.00
2023-05-14T03:58:32.808Z,100.00
2023-05-14T04:00:34.224Z,100.00
2023-05-14T04:02:35.688Z,100.00
2023-05-14T04:04:37.326Z,100.00
2023-05-14T04:06:38.871Z,100.00
2023-05-14T04:08:40.253Z,100.00
2023-05-14T04:10:42.866Z,100.00
2023-05-14T04:12:44.262Z,100.00
2023-05-14T04:14:45.724Z,100.00
2023-05-14T04:16:47.251Z,100.00
2023-05-14T04:18:48.808Z,100.00
2023-05-14T04:20:50.217Z,100.00
2023-05-14T04:22:51.936Z,100.00
2023-05-14T04:24:53.315Z,100.00
2023-05-14T04:26:54.759Z,100.00
2023-05-14T04:28:56.240Z,100.00
2023-05-14T04:30:57.670Z,99.56
2023-05-14T04:32:59.135Z,94.32
2023-05-14T04:35:00.887Z,92.70
2023-05-14T04:37:02.255Z,92.65
2023-05-14T04:39:03.690Z,92.07
2023-05-14T04:41:05.454Z,78.95
2023-05-14T04:43:07.423Z,73.58
2023-05-14T04:45:09.291Z,70.69
2023-05-14T04:47:10.789Z,68.72
2023-05-14T04:49:12.206Z,63.34
2023-05-14T04:51:14.189Z,58.15
2023-05-14T04:53:15.860Z,57.35
2023-05-14T04:55:17.284Z,53.47
2023-05-14T04:57:18.698Z,52.56
2023-05-14T04:59:20.439Z,50.59
2023-05-14T05:01:22.367Z,51.87
2023-05-14T05:03:23.924Z,51.97
2023-05-14T05:05:25.616Z,53.04
2023-05-14T05:07:27.110Z,53.95
2023-05-14T05:09:28.510Z,52.92
2023-05-14T05:11:30.003Z,51.79
2023-05-14T05:13:31.429Z,52.97
2023-05-14T05:15:32.843Z,51.30
2023-05-14T05:17:34.471Z,49.98
2023-05-14T05:19:43.160Z,52.01
2023-05-14T05:21:45.464Z,50.96
2023-05-14T05:23:46.954Z,53.38
2023-05-14T05:25:49.250Z,52.23
2023-05-14T05:27:50.650Z,50.99
2023-05-14T05:29:52.145Z,50.90
2023-05-14T05:31:53.644Z,47.38
2023-05-14T05:33:55.142Z,42.53
2023-05-14T05:35:59.274Z,40.46
2023-05-14T05:38:01.717Z,40.71
2023-05-14T05:40:04.078Z,42.97
2023-05-14T05:42:05.965Z,41.89
2023-05-14T05:44:07.347Z,39.43
2023-05-14T05:46:08.798Z,39.34
2023-05-14T05:48:10.308Z,38.85
2023-05-14T05:50:11.800Z,37.72
2023-05-14T05:52:13.262Z,39.54
2023-05-14T05:54:14.971Z,38.69
2023-05-14T05:56:16.382Z,37.59
2023-05-14T05:58:20.558Z,39.23
2023-05-14T06:00:23.375Z,39.38
2023-05-14T06:02:25.823Z,38.80
2023-05-14T06:04:27.349Z,38.97
2023-05-14T06:06:29.340Z,39.28
2023-05-14T06:08:30.721Z,40.89
2023-05-14T06:10:32.193Z,40.85
2023-05-14T06:12:33.766Z,39.93
2023-05-14T06:14:35.148Z,39.99
2023-05-14T06:16:36.693Z,38.65
2023-05-14T06:18:38.417Z,39.72
2023-05-14T06:20:39.896Z,40.25
2023-05-14T06:22:41.912Z,38.62
2023-05-14T06:24:43.558Z,36.66
2023-05-14T06:26:44.967Z,37.00
2023-05-14T06:28:46.466Z,39.91
2023-05-14T06:30:50.258Z,38.47
2023-05-14T06:32:51.763Z,37.34
2023-05-14T06:34:53.190Z,37.49
2023-05-14T06:36:54.798Z,36.79
2023-05-14T06:38:56.207Z,35.43
2023-05-14T06:40:57.612Z,35.55
2023-05-14T06:42:59.098Z,36.76
2023-05-14T06:45:00.663Z,36.77
2023-05-14T06:47:02.079Z,33.56
2023-05-14T06:49:03.654Z,35.16
2023-05-14T06:51:05.143Z,37.75
2023-05-14T06:53:06.580Z,36.62
2023-05-14T06:55:08.340Z,39.19
2023-05-14T06:57:09.763Z,36.98
2023-05-14T06:59:11.155Z,37.58
2023-05-14T07:01:13.137Z,38.13
2023-05-14T07:03:14.555Z,35.94
2023-05-14T07:05:15.937Z,33.69
2023-05-14T07:07:17.572Z,32.40
2023-05-14T07:09:18.973Z,32.79
2023-05-14T07:11:20.385Z,32.63
2023-05-14T07:13:21.994Z,33.54
2023-05-14T07:15:23.414Z,34.13
2023-05-14T07:17:25.040Z,35.61
2023-05-14T07:19:26.756Z,35.36
2023-05-14T07:21:28.151Z,35.12
2023-05-14T07:23:29.571Z,35.26
2023-05-14T07:25:31.077Z,35.07
2023-05-14T07:27:32.476Z,36.00
2023-05-14T07:29:34.111Z,38.90
2023-05-14T07:31:35.656Z,35.77
2023-05-14T07:33:37.097Z,35.14
2023-05-14T07:35:38.615Z,35.91
2023-05-14T07:37:40.296Z,36.06
2023-05-14T07:39:41.738Z,34.55
2023-05-14T07:41:43.236Z,35.58
2023-05-14T07:43:44.697Z,34.64
2023-05-14T07:45:46.107Z,32.53
2023-05-14T07:47:47.607Z,34.00
2023-05-14T07:49:49.114Z,34.86
2023-05-14T07:51:50.545Z,34.25
2023-05-14T07:53:51.983Z,32.92
2023-05-14T07:55:53.429Z,34.35
2023-05-14T07:57:54.859Z,32.98
2023-05-14T07:59:56.865Z,32.49
2023-05-14T08:01:58.522Z,31.95
2023-05-14T08:04:00.114Z,31.41
2023-05-14T08:06:01.680Z,32.79
2023-05-14T08:08:03.163Z,30.21
2023-05-14T08:10:05.002Z,30.63
2023-05-14T08:12:07.057Z,32.47
2023-05-14T08:14:08.494Z,32.31
2023-05-14T08:16:10.091Z,32.09
2023-05-14T08:18:11.644Z,31.09
2023-05-14T08:20:13.211Z,30.76
2023-05-14T08:22:14.723Z,30.87
2023-05-14T08:24:16.129Z,31.28
2023-05-14T08:26:17.694Z,31.72
2023-05-14T08:28:19.906Z,31.14
2023-05-14T08:30:21.867Z,32.41
2023-05-14T08:32:24.268Z,31.86
2023-05-14T08:34:25.910Z,30.84
2023-05-14T08:36:27.336Z,31.66
2023-05-14T08:38:28.802Z,30.03
2023-05-14T08:40:30.233Z,30.44
2023-05-14T08:42:31.980Z,29.10
2023-05-14T08:44:58.370Z,29.14
2023-05-14T08:47:00.367Z,29.67
2023-05-14T08:49:15.059Z,29.63
2023-05-14T08:51:16.544Z,32.19
2023-05-14T08:53:18.002Z,31.39
2023-05-14T08:55:19.999Z,29.31
2023-05-14T08:57:22.890Z,29.75
2023-05-14T08:59:24.373Z,30.15
2023-05-14T09:01:26.184Z,30.51
2023-05-14T09:03:27.841Z,29.77
2023-05-14T09:05:29.344Z,29.59
2023-05-14T09:07:31.005Z,30.49
2023-05-14T09:09:32.817Z,30.36
2023-05-14T09:11:34.198Z,29.66
2023-05-14T09:13:38.742Z,30.34
2023-05-14T09:15:40.141Z,31.17
2023-05-14T09:17:41.591Z,30.51
2023-05-14T09:19:43.958Z,30.51
2023-05-14T09:21:46.515Z,30.49
2023-05-14T09:23:53.898Z,31.13
2023-05-14T09:25:55.372Z,30.46
2023-05-14T09:27:58.683Z,30.66
2023-05-14T09:30:12.223Z,29.75
2023-05-14T09:32:13.934Z,29.69
2023-05-14T09:34:27.415Z,30.51
2023-05-14T09:36:28.796Z,30.42
2023-05-14T09:38:33.925Z,30.23
2023-05-14T09:40:35.394Z,30.04
2023-05-14T09:42:36.777Z,30.47
2023-05-14T09:44:38.174Z,29.60
2023-05-14T09:46:39.574Z,28.43
2023-05-14T09:48:41.022Z,29.29
2023-05-14T09:50:43.817Z,29.94
2023-05-14T09:52:45.242Z,28.31
2023-05-14T09:54:46.721Z,28.76
2023-05-14T09:56:50.451Z,27.68
2023-05-14T09:58:51.856Z,28.23
2023-05-14T10:00:54.486Z,27.14
2023-05-14T10:02:58.605Z,27.50
2023-05-14T10:05:03.949Z,27.73
2023-05-14T10:07:05.442Z,27.73
2023-05-14T10:09:12.468Z,27.50
2023-05-14T10:11:15.528Z,27.50
2023-05-14T10:13:20.752Z,27.96
2023-05-14T10:15:50.972Z,27.63
2023-05-14T10:17:56.681Z,27.31
2023-05-14T10:19:59.872Z,28.13
2023-05-14T10:22:07.685Z,27.98
2023-05-14T10:24:10.000Z,28.33
2023-05-14T10:26:11.909Z,27.79
2023-05-14T10:28:13.826Z,28.02
2023-05-14T10:30:15.302Z,28.07
2023-05-14T10:32:16.687Z,27.22
2023-05-14T10:34:37.054Z,26.03
2023-05-14T10:36:38.704Z,27.44
2023-05-14T10:38:40.228Z,28.15
2023-05-14T10:40:41.684Z,27.51
2023-05-14T10:42:43.765Z,27.45
2023-05-14T10:44:52.945Z,26.81
2023-05-14T10:46:54.465Z,26.89
2023-05-14T10:48:56.789Z,26.38
2023-05-14T10:50:58.640Z,26.24
2023-05-14T10:53:00.315Z,25.40
2023-05-14T10:55:06.217Z,26.41
2023-05-14T10:57:11.664Z,28.67
2023-05-14T10:59:13.098Z,26.20
2023-05-14T11:01:14.544Z,26.05
2023-05-14T11:03:16.266Z,25.85
2023-05-14T11:05:17.982Z,26.43
2023-05-14T11:07:24.082Z,26.32
2023-05-14T11:09:25.766Z,26.38
2023-05-14T11:11:29.175Z,26.40
2023-05-14T11:13:30.730Z,26.03
2023-05-14T11:15:32.236Z,26.78
2023-05-14T11:17:35.413Z,26.23
2023-05-14T11:19:37.457Z,26.31
2023-05-14T11:21:39.136Z,26.69
2023-05-14T11:23:40.591Z,26.37
2023-05-14T11:25:42.885Z,27.36
2023-05-14T11:27:45.592Z,26.59
2023-05-14T11:29:48.627Z,26.19
2023-05-14T11:31:50.498Z,26.33
2023-05-14T11:33:52.595Z,26.18
2023-05-14T11:35:54.116Z,25.87
2023-05-14T11:37:55.616Z,26.71
2023-05-14T11:40:00.977Z,25.74
2023-05-14T11:42:03.026Z,26.64
2023-05-14T11:44:04.563Z,26.60
2023-05-14T11:46:06.048Z,27.58
2023-05-14T11:48:13.342Z,28.21
2023-05-14T11:50:16.502Z,27.30
2023-05-14T11:52:18.115Z,27.84
2023-05-14T11:54:19.511Z,27.39
2023-05-14T11:56:21.876Z,27.60
2023-05-14T11:58:24.753Z,27.47
2023-05-14T12:00:26.642Z,26.85
2023-05-14T12:02:28.822Z,27.23
2023-05-14T12:04:30.892Z,28.10
2023-05-14T12:06:32.584Z,25.33
2023-05-14T12:08:34.195Z,26.14
2023-05-14T12:10:42.468Z,25.91
2023-05-14T12:12:47.305Z,26.61
2023-05-14T12:14:50.238Z,26.78
2023-05-14T12:16:51.631Z,27.00
2023-05-14T12:18:53.108Z,27.01
2023-05-14T12:20:54.834Z,27.32
2023-05-14T12:22:56.300Z,27.38
2023-05-14T12:24:59.837Z,26.92
2023-05-14T12:27:01.669Z,27.00
2023-05-14T12:29:03.779Z,26.75
2023-05-14T12:31:05.321Z,27.29
2023-05-14T12:33:06.784Z,26.96
2023-05-14T12:35:09.027Z,27.22
2023-05-14T12:37:10.435Z,27.24
2023-05-14T12:39:12.013Z,27.24
2023-05-14T12:41:13.516Z,26.96
2023-05-14T12:43:16.974Z,26.73
2023-05-14T12:45:18.334Z,27.16
2023-05-14T12:47:19.982Z,27.16
2023-05-14T12:49:21.409Z,27.61
2023-05-14T12:51:23.406Z,27.58
2023-05-14T12:53:24.815Z,27.46
2023-05-14T12:55:26.263Z,27.51
2023-05-14T12:57:27.813Z,27.49
2023-05-14T12:59:29.207Z,27.38
2023-05-14T13:01:30.709Z,27.30
2023-05-14T13:03:32.564Z,27.44
2023-05-14T13:05:33.988Z,27.85
2023-05-14T13:07:35.506Z,27.92
2023-05-14T13:09:36.912Z,27.69
2023-05-14T13:11:38.298Z,27.87
2023-05-14T13:13:39.725Z,27.88
2023-05-14T13:15:41.173Z,27.99
2023-05-14T13:17:42.636Z,28.73
2023-05-14T13:19:44.063Z,28.75
2023-05-14T13:21:45.519Z,27.42
2023-05-14T13:23:47.724Z,27.35
2023-05-14T13:25:50.037Z,26.32
2023-05-14T13:27:51.649Z,26.86
2023-05-14T13:29:53.043Z,27.67
2023-05-14T13:31:54.449Z,26.81
2023-05-14T13:33:55.839Z,26.97
2023-05-14T13:35:57.228Z,27.12
2023-05-14T13:37:58.631Z,27.54
2023-05-14T13:40:00.173Z,27.75
2023-05-14T13:42:01.585Z,26.88
2023-05-14T13:44:03.547Z,27.24
2023-05-14T13:46:05.511Z,26.86
2023-05-14T13:48:07.062Z,27.48
2023-05-14T13:50:08.952Z,27.35
2023-05-14T13:52:10.516Z,27.44
2023-05-14T13:54:12.004Z,27.14
2023-05-14T13:56:13.390Z,26.92
2023-05-14T13:58:15.102Z,26.58
2023-05-14T14:00:16.890Z,26.79
2023-05-14T14:02:18.327Z,26.10
2023-05-14T14:04:19.741Z,26.56
2023-05-14T14:06:21.158Z,26.83
2023-05-14T14:08:24.308Z,27.48
2023-05-14T14:10:26.077Z,27.44
2023-05-14T14:12:27.788Z,27.39
2023-05-14T14:14:29.303Z,27.82
2023-05-14T14:16:30.857Z,27.06
2023-05-14T14:18:32.618Z,27.19
2023-05-14T14:20:34.034Z,27.64
2023-05-14T14:22:36.101Z,27.87
2023-05-14T14:24:37.500Z,27.96
2023-05-14T14:26:38.919Z,28.02
2023-05-14T14:28:40.438Z,28.18
2023-05-14T14:30:42.333Z,28.02
2023-05-14T14:32:48.517Z,27.78
2023-05-14T14:34:50.708Z,28.63
2023-05-14T14:36:52.126Z,27.12
2023-05-14T14:38:53.520Z,28.56
2023-05-14T14:40:55.169Z,28.57
2023-05-14T14:42:56.575Z,27.34
2023-05-14T14:44:57.968Z,28.31
2023-05-14T14:46:59.369Z,28.56
2023-05-14T14:49:00.793Z,28.54
2023-05-14T14:51:02.260Z,28.00
2023-05-14T14:53:03.655Z,28.32
2023-05-14T14:55:05.645Z,28.63
2023-05-14T14:57:07.038Z,28.08
2023-05-14T14:59:08.500Z,28.04
2023-05-14T15:01:09.967Z,28.37
2023-05-14T15:03:11.993Z,28.51
2023-05-14T15:05:13.638Z,28.26
2023-05-14T15:07:15.039Z,28.26
2023-05-14T15:09:16.478Z,28.69
2023-05-14T15:11:18.082Z,27.99
2023-05-14T15:13:19.498Z,28.03
2023-05-14T15:15:20.992Z,28.06
2023-05-14T15:17:23.308Z,27.35
2023-05-14T15:19:24.761Z,28.09
2023-05-14T15:21:26.272Z,28.39
2023-05-14T15:23:27.715Z,28.34
2023-05-14T15:25:29.126Z,29.01
2023-05-14T15:27:30.510Z,28.87
2023-05-14T15:29:32.109Z,29.23
2023-05-14T15:31:33.732Z,28.74
2023-05-14T15:33:35.795Z,29.10
2023-05-14T15:35:37.233Z,29.46
2023-05-14T15:37:41.310Z,29.18
2023-05-14T15:39:42.806Z,29.10
2023-05-14T15:41:44.933Z,28.33
2023-05-14T15:43:46.395Z,28.52
2023-05-14T15:45:47.827Z,28.38
2023-05-14T15:47:49.264Z,28.37
2023-05-14T15:49:50.667Z,28.25
2023-05-14T15:51:52.172Z,28.90
2023-05-14T15:53:54.197Z,31.00
2023-05-14T15:55:55.673Z,31.42
2023-05-14T15:57:57.214Z,29.99
2023-05-14T15:59:58.673Z,31.40
2023-05-14T16:02:00.237Z,30.57
2023-05-14T16:04:01.792Z,30.00
2023-05-14T16:06:03.669Z,29.83
2023-05-14T16:08:05.452Z,29.77
2023-05-14T16:10:07.365Z,29.96
2023-05-14T16:12:09.105Z,31.86
2023-05-14T16:14:10.552Z,30.76
2023-05-14T16:16:12.126Z,29.65
2023-05-14T16:18:13.692Z,30.86
2023-05-14T16:20:15.285Z,30.58
2023-05-14T16:22:16.679Z,31.31
2023-05-14T16:24:18.606Z,31.48
2023-05-14T16:26:20.126Z,30.85
2023-05-14T16:28:21.619Z,30.86
2023-05-14T16:30:23.298Z,30.99
2023-05-14T16:32:24.848Z,30.57
2023-05-14T16:34:26.248Z,30.64
2023-05-14T16:36:28.137Z,31.01
2023-05-14T16:38:29.533Z,30.87
2023-05-14T16:40:30.954Z,31.10
2023-05-14T16:42:32.514Z,31.31
2023-05-14T16:44:33.926Z,31.94
2023-05-14T16:46:35.373Z,31.95
2023-05-14T16:48:36.835Z,32.60
2023-05-14T16:50:38.268Z,32.80
2023-05-14T16:52:39.764Z,32.37
2023-05-14T16:54:41.774Z,32.30
2023-05-14T16:56:43.212Z,33.33
2023-05-14T16:58:44.625Z,33.33
2023-05-14T17:00:46.256Z,33.56
2023-05-14T17:02:47.662Z,34.01
2023-05-14T17:04:49.139Z,33.89
2023-05-14T17:06:50.739Z,34.16
2023-05-14T17:08:52.281Z,34.70
2023-05-14T17:10:53.946Z,34.60
2023-05-14T17:12:55.718Z,34.77
2023-05-14T17:14:57.105Z,35.44
2023-05-14T17:16:58.634Z,35.33
2023-05-14T17:19:00.143Z,36.10
2023-05-14T17:21:01.588Z,35.86
2023-05-14T17:23:02.977Z,35.91
2023-05-14T17:25:04.719Z,35.98
2023-05-14T17:27:06.406Z,36.49
2023-05-14T17:29:07.811Z,37.07
2023-05-14T17:31:09.371Z,37.80
2023-05-14T17:33:12.215Z,37.00
2023-05-14T17:35:13.798Z,36.61
2023-05-14T17:37:15.312Z,37.85
2023-05-14T17:39:16.755Z,37.35
2023-05-14T17:41:18.135Z,37.84
2023-05-14T17:43:19.693Z,38.49
2023-05-14T17:45:21.143Z,38.07
2023-05-14T17:47:22.619Z,39.57
2023-05-14T17:49:24.461Z,38.51
2023-05-14T17:51:25.852Z,38.55
2023-05-14T17:53:27.277Z,39.48
2023-05-14T17:55:29.067Z,39.50
2023-05-14T17:57:30.520Z,40.11
2023-05-14T17:59:31.944Z,40.25
2023-05-14T18:01:33.630Z,38.87
2023-05-14T18:03:35.393Z,39.39
2023-05-14T18:05:37.019Z,38.31
2023-05-14T18:07:38.633Z,37.90
2023-05-14T18:09:40.068Z,37.45
2023-05-14T18:11:42.209Z,37.40
2023-05-14T18:13:43.780Z,37.68
2023-05-14T18:15:45.230Z,37.76
2023-05-14T18:17:47.103Z,37.86
2023-05-14T18:19:48.560Z,38.33
2023-05-14T18:21:49.955Z,38.61
2023-05-14T18:23:51.369Z,39.17
2023-05-14T18:25:52.849Z,39.65
2023-05-14T18:27:54.419Z,39.49
2023-05-14T18:29:55.920Z,40.12
2023-05-14T18:31:57.442Z,40.78
2023-05-14T18:33:58.848Z,41.19
2023-05-14T18:36:01.032Z,41.28
2023-05-14T18:38:02.671Z,42.00
2023-05-14T18:40:07.693Z,42.70
2023-05-14T18:42:09.201Z,42.39
2023-05-14T18:44:10.738Z,42.35
2023-05-14T18:46:12.257Z,42.89
2023-05-14T18:48:14.572Z,43.51
2023-05-14T18:50:16.045Z,43.72
2023-05-14T18:52:17.443Z,43.85
2023-05-14T18:54:18.923Z,43.96
2023-05-14T18:56:20.343Z,44.09
2023-05-14T18:58:21.746Z,44.33
2023-05-14T19:00:23.365Z,46.29
2023-05-14T19:02:24.941Z,47.55
2023-05-14T19:04:26.440Z,48.21
2023-05-14T19:06:28.165Z,48.42
2023-05-14T19:08:29.653Z,48.60
2023-05-14T19:10:31.057Z,49.05
2023-05-14T19:12:32.520Z,52.90
2023-05-14T19:14:34.047Z,56.20
2023-05-14T19:16:35.502Z,57.21
2023-05-14T19:18:36.999Z,61.27
2023-05-14T19:20:38.522Z,62.44
2023-05-14T19:22:39.932Z,63.77
2023-05-14T19:24:41.361Z,64.47
2023-05-14T19:26:42.965Z,63.44
2023-05-14T19:28:44.559Z,64.03
2023-05-14T19:30:45.954Z,65.31
2023-05-14T19:32:47.480Z,65.26
2023-05-14T19:34:49.613Z,64.75
2023-05-14T19:36:52.897Z,64.69
2023-05-14T19:38:54.382Z,65.52
2023-05-14T19:40:55.813Z,69.33
2023-05-14T19:42:57.248Z,69.36
2023-05-14T19:44:58.796Z,69.33
2023-05-14T19:47:00.541Z,68.88
2023-05-14T19:49:01.991Z,66.68
2023-05-14T19:51:03.553Z,70.69
2023-05-14T19:53:04.982Z,70.87
2023-05-14T19:55:06.610Z,71.95
2023-05-14T19:57:09.479Z,74.62
2023-05-14T19:59:10.906Z,73.76
2023-05-14T20:01:12.446Z,75.06
2023-05-14T20:03:14.091Z,73.87
2023-05-14T20:05:15.975Z,74.93
2023-05-14T20:07:17.421Z,75.64
2023-05-14T20:09:19.116Z,74.64
2023-05-14T20:11:20.799Z,75.28
2023-05-14T20:13:24.488Z,74.66
2023-05-14T20:15:26.769Z,73.01
2023-05-14T20:17:28.214Z,72.60
2023-05-14T20:19:29.665Z,74.88
2023-05-14T20:21:31.217Z,74.86
2023-05-14T20:23:32.696Z,76.79
2023-05-14T20:25:35.096Z,77.62
2023-05-14T20:27:36.748Z,78.87
2023-05-14T20:29:38.133Z,79.60
2023-05-14T20:31:39.583Z,79.51
2023-05-14T20:33:41.132Z,79.74
2023-05-14T20:35:42.570Z,78.96
2023-05-14T20:37:44.014Z,80.23
2023-05-14T20:39:46.229Z,81.77
2023-05-14T20:41:47.681Z,79.93
2023-05-14T20:43:49.081Z,81.45
2023-05-14T20:45:50.478Z,81.45
2023-05-14T20:47:51.939Z,82.15
2023-05-14T20:49:53.405Z,84.24
2023-05-14T20:51:54.902Z,82.02
2023-05-14T20:53:56.312Z,82.53
2023-05-14T20:55:57.757Z,82.73
2023-05-14T20:57:59.188Z,82.92
2023-05-14T21:00:01.516Z,82.60
2023-05-14T21:02:03.195Z,82.66
2023-05-14T21:04:04.979Z,81.54
2023-05-14T21:06:06.618Z,83.85
2023-05-14T21:08:08.042Z,84.03
2023-05-14T21:10:10.038Z,83.56
2023-05-14T21:12:11.590Z,83.50
2023-05-14T21:14:13.539Z,81.39
2023-05-14T21:16:15.672Z,81.56
2023-05-14T21:18:17.102Z,82.56
2023-05-14T21:20:18.570Z,82.90
2023-05-14T21:22:21.974Z,83.01
2023-05-14T21:24:23.371Z,83.16
2023-05-14T21:26:25.688Z,83.03
2023-05-14T21:28:27.174Z,84.21
2023-05-14T21:30:28.584Z,84.28
2023-05-14T21:32:30.032Z,83.32
2023-05-14T21:34:32.075Z,83.51
2023-05-14T21:36:33.675Z,84.63
2023-05-14T21:38:35.308Z,84.54
2023-05-14T21:40:36.780Z,85.88
2023-05-14T21:42:38.835Z,85.53
2023-05-14T21:44:40.222Z,85.98
2023-05-14T21:46:41.717Z,84.34
2023-05-14T21:48:43.187Z,85.19
2023-05-14T21:50:44.626Z,86.05
2023-05-14T21:52:46.301Z,84.97
2023-05-14T21:54:47.689Z,87.96
2023-05-14T21:56:49.268Z,87.26
2023-05-14T21:58:50.877Z,87.59
2023-05-14T22:00:52.359Z,86.76
2023-05-14T22:02:53.859Z,85.96
2023-05-14T22:04:55.441Z,86.18
2023-05-14T22:06:56.956Z,85.79
2023-05-14T22:08:58.350Z,84.58
2023-05-14T22:11:00.311Z,85.23
2023-05-14T22:13:01.739Z,84.78
2023-05-14T22:15:03.615Z,85.13
2023-05-14T22:17:05.182Z,85.72
2023-05-14T22:19:06.742Z,85.77
2023-05-14T22:21:08.317Z,86.60
2023-05-14T22:23:09.931Z,87.42
2023-05-14T22:25:11.373Z,86.52
2023-05-14T22:27:12.764Z,86.35
2023-05-14T22:29:14.173Z,79.65
2023-05-14T22:31:16.070Z,83.24
2023-05-14T22:33:17.490Z,82.63
2023-05-14T22:35:18.911Z,79.32
2023-05-14T22:37:20.321Z,81.50
2023-05-14T22:39:21.716Z,80.72
2023-05-14T22:41:23.216Z,81.82
2023-05-14T22:43:24.636Z,76.81
2023-05-14T22:45:26.304Z,75.28
2023-05-14T22:47:28.077Z,69.92
2023-05-14T22:49:29.499Z,67.45
2023-05-14T22:51:30.895Z,66.71
2023-05-14T22:53:32.528Z,66.57
2023-05-14T22:55:34.221Z,65.09
2023-05-14T22:57:35.823Z,60.95
2023-05-14T22:59:37.677Z,59.73
2023-05-14T23:01:39.560Z,59.00
2023-05-14T23:03:41.047Z,57.59
2023-05-14T23:05:42.636Z,56.95
2023-05-14T23:07:44.201Z,56.00
2023-05-14T23:09:45.647Z,55.27
2023-05-14T23:11:47.208Z,54.84
2023-05-14T23:13:48.687Z,54.41
2023-05-14T23:15:50.295Z,54.27
2023-05-14T23:17:52.038Z,54.21
2023-05-14T23:19:53.626Z,53.34
2023-05-14T23:21:55.161Z,53.95
2023-05-14T23:23:56.795Z,53.98
2023-05-14T23:25:58.272Z,53.08
2023-05-14T23:27:59.689Z,53.16
2023-05-14T23:30:01.261Z,53.03
2023-05-14T23:32:02.682Z,52.94
2023-05-14T23:34:04.179Z,52.50
2023-05-14T23:36:06.192Z,52.22
2023-05-14T23:38:08.092Z,52.38
2023-05-14T23:40:09.935Z,52.11
2023-05-14T23:42:11.572Z,52.19
2023-05-14T23:44:12.955Z,51.95
2023-05-14T23:46:14.879Z,52.30
2023-05-14T23:48:16.597Z,52.68
2023-05-14T23:50:18.008Z,52.20
2023-05-14T23:52:19.405Z,52.78
2023-05-14T23:54:21.069Z,52.40
2023-05-14T23:56:26.240Z,52.31
2023-05-14T23:58:27.731Z,52.38
